CheckWX is a tool to help pilots better visualize weather data.  It is not intended as a substitute for an official pre-flight weather briefing.

06:47:18 UTC

1S5 METAR
Sunnyside Municipal Airport
Sunnyside, Washington, USA
Current

12 mins ago

K1S5 170635Z AUTO 25007KT 10SM CLR 22/09 A2986 RMK AO2 T02210091
Observed
Jun-17 @ 06:35 UTC
Wind
  • 250° at 7 KTS
Visibility
10 SM
Flight Rules
VFR
Cloud Levels
  • Clear skies
Temperature
22°C / 72°F
Dewpoint
C / 48°F
Humidity
44%
Altimeter
29.86" Hg
Pressure
1011.22 hPa
Previous

32 mins ago

K1S5 170615Z AUTO 25010KT 10SM CLR 23/09 A2985 RMK AO2 LTG DSNT SE T02260090
Observed
Jun-17 @ 06:15 UTC
Wind
  • 250° at 10 KTS
Visibility
10 SM
Flight Rules
VFR
Cloud Levels
  • Clear skies
Temperature
23°C / 73°F
Dewpoint
C / 48°F
Humidity
41%
Altimeter
29.85" Hg
Pressure
1010.82 hPa
Previous

52 mins ago

K1S5 170555Z AUTO 25008KT 10SM CLR 23/09 A2985 RMK AO2 T02290087 10330 20228 403310110
Observed
Jun-17 @ 05:55 UTC
Wind
  • 250° at 8 KTS
Visibility
10 SM
Flight Rules
VFR
Cloud Levels
  • Clear skies
Temperature
23°C / 73°F
Dewpoint
C / 48°F
Humidity
41%
Altimeter
29.85" Hg
Pressure
1010.82 hPa